createdAt,value
2022-11-06T09:34:02.121Z,10.42
2022-11-06T09:36:05.808Z,10.42
2022-11-06T09:38:11.696Z,10.13
2022-11-06T09:40:21.745Z,10.17
2022-11-06T09:42:31.590Z,10.38
2022-11-06T09:45:08.342Z,10.24
2022-11-06T09:47:20.689Z,10.39
2022-11-06T09:49:29.109Z,10.69
2022-11-06T09:51:38.545Z,10.83
2022-11-06T09:53:48.598Z,10.79
2022-11-06T09:55:53.197Z,10.77
2022-11-06T09:57:57.688Z,10.80
2022-11-06T10:00:02.047Z,11.19
2022-11-06T10:02:20.532Z,11.16
2022-11-06T10:04:36.386Z,11.49
2022-11-06T10:06:38.641Z,11.51
2022-11-06T10:08:44.030Z,11.47
2022-11-06T10:10:58.263Z,11.54
2022-11-06T10:13:06.397Z,11.68
2022-11-06T10:15:33.787Z,11.73
2022-11-06T10:17:45.772Z,11.92
2022-11-06T10:20:20.940Z,12.07
2022-11-06T10:22:32.213Z,11.71
2022-11-06T10:24:43.837Z,11.41
2022-11-06T10:26:52.334Z,11.41
2022-11-06T10:29:19.643Z,11.45
2022-11-06T10:31:56.333Z,11.45
2022-11-06T10:34:09.577Z,11.98
2022-11-06T10:36:18.629Z,11.89
2022-11-06T10:38:28.605Z,11.79
2022-11-06T10:40:33.198Z,11.24
2022-11-06T10:42:40.276Z,11.09
2022-11-06T10:44:59.730Z,11.02
2022-11-06T10:47:16.054Z,10.83
2022-11-06T10:49:30.170Z,10.74
2022-11-06T10:51:50.420Z,11.04
2022-11-06T10:53:58.448Z,11.14
2022-11-06T10:56:26.650Z,11.45
2022-11-06T10:58:32.754Z,11.43
2022-11-06T11:00:35.436Z,10.96
2022-11-06T11:02:43.872Z,10.92
2022-11-06T11:04:46.372Z,11.07
2022-11-06T11:06:48.679Z,10.89
2022-11-06T11:08:52.259Z,11.04
2022-11-06T11:11:06.008Z,10.97
2022-11-06T11:13:20.435Z,10.92
2022-11-06T11:15:25.031Z,11.03
2022-11-06T11:17:27.569Z,11.03
2022-11-06T11:19:44.468Z,10.91
2022-11-06T11:21:58.838Z,11.14
2022-11-06T11:24:01.233Z,11.10
2022-11-06T11:26:17.720Z,11.16
2022-11-06T11:28:26.703Z,11.27
2022-11-06T11:30:31.917Z,11.38
2022-11-06T11:32:34.210Z,11.57
2022-11-06T11:34:49.273Z,11.58
2022-11-06T11:37:01.289Z,11.52
2022-11-06T11:39:03.755Z,11.69
2022-11-06T11:41:13.707Z,11.68
2022-11-06T11:43:23.642Z,11.48
2022-11-06T11:45:25.975Z,11.41
2022-11-06T11:47:28.376Z,11.30
2022-11-06T11:49:32.403Z,11.27
2022-11-06T11:51:47.769Z,11.32
2022-11-06T11:53:51.664Z,11.36
2022-11-06T11:55:54.754Z,11.41
2022-11-06T11:58:00.531Z,11.64
2022-11-06T12:00:06.252Z,11.81
2022-11-06T12:02:38.835Z,11.88
2022-11-06T12:04:43.722Z,11.74
2022-11-06T12:06:51.701Z,11.87
2022-11-06T12:08:55.519Z,12.26
2022-11-06T12:11:06.521Z,12.19
2022-11-06T12:13:19.301Z,12.67
2022-11-06T12:15:28.121Z,13.01
2022-11-06T12:17:34.109Z,13.37
2022-11-06T12:19:40.236Z,13.47
2022-11-06T12:21:46.625Z,13.25
2022-11-06T12:23:57.053Z,12.94
2022-11-06T12:26:31.666Z,13.26
2022-11-06T12:28:38.180Z,13.18
2022-11-06T12:30:45.667Z,13.11
2022-11-06T12:33:52.027Z,12.98
2022-11-06T12:36:00.096Z,13.26
2022-11-06T12:38:47.009Z,13.80
2022-11-06T12:40:58.628Z,14.09
2022-11-06T12:43:05.004Z,13.66
2022-11-06T12:45:12.598Z,13.45
2022-11-06T12:47:26.536Z,13.52
2022-11-06T12:49:44.160Z,13.74
2022-11-06T12:51:49.111Z,13.31
2022-11-06T12:54:12.220Z,13.16
2022-11-06T12:56:25.016Z,12.71
2022-11-06T12:58:52.507Z,12.61
2022-11-06T13:01:14.750Z,13.03
2022-11-06T13:03:35.770Z,13.05
2022-11-06T13:05:38.134Z,12.57
2022-11-06T13:07:47.103Z,12.69
2022-11-06T13:10:09.691Z,12.48
2022-11-06T13:12:22.758Z,12.68
2022-11-06T13:15:06.912Z,12.83
2022-11-06T13:17:25.380Z,12.74
2022-11-06T13:19:35.462Z,12.68
2022-11-06T13:22:15.973Z,12.80
2022-11-06T13:25:00.622Z,12.81
2022-11-06T13:27:24.025Z,12.89
2022-11-06T13:29:27.969Z,12.91
2022-11-06T13:31:54.930Z,12.86
2022-11-06T13:34:01.747Z,13.08
2022-11-06T13:36:06.703Z,12.92
2022-11-06T13:38:16.491Z,12.83
2022-11-06T13:40:36.175Z,12.73
2022-11-06T13:42:45.154Z,12.70
2022-11-06T13:44:48.761Z,12.78
2022-11-06T13:47:17.014Z,12.77
2022-11-06T13:49:49.073Z,12.82
2022-11-06T13:51:52.032Z,12.75
2022-11-06T13:54:03.567Z,12.59
2022-11-06T13:56:27.662Z,12.52
2022-11-06T13:59:16.624Z,12.62
2022-11-06T14:01:29.878Z,12.70
2022-11-06T14:03:53.778Z,12.77
2022-11-06T14:06:15.400Z,12.90
2022-11-06T14:08:42.584Z,12.76
2022-11-06T14:10:59.338Z,12.69
2022-11-06T14:13:04.072Z,12.59
2022-11-06T14:15:26.328Z,12.65
2022-11-06T14:17:29.361Z,12.71
2022-11-06T14:19:31.767Z,12.67
2022-11-06T14:21:37.418Z,12.41
2022-11-06T14:23:43.124Z,12.47
2022-11-06T14:25:46.926Z,12.49
2022-11-06T14:27:49.120Z,12.61
2022-11-06T14:29:55.350Z,12.68
2022-11-06T14:32:03.914Z,12.48
2022-11-06T14:34:27.787Z,12.56
2022-11-06T14:36:34.694Z,12.51
2022-11-06T14:38:37.945Z,12.78
2022-11-06T14:40:40.443Z,12.60
2022-11-06T14:42:47.448Z,12.49
2022-11-06T14:45:10.606Z,12.35
2022-11-06T14:47:26.861Z,12.35
2022-11-06T14:49:37.530Z,12.33
2022-11-06T14:51:40.197Z,12.09
2022-11-06T14:53:49.459Z,12.05
2022-11-06T14:56:03.596Z,12.08
2022-11-06T14:58:17.961Z,12.19
2022-11-06T15:00:48.841Z,12.12
2022-11-06T15:02:51.310Z,11.98
2022-11-06T15:05:07.145Z,12.01
2022-11-06T15:07:44.747Z,12.06
2022-11-06T15:09:48.666Z,12.09
2022-11-06T15:11:52.966Z,12.03
2022-11-06T15:14:15.910Z,11.88
2022-11-06T15:16:18.450Z,11.83
2022-11-06T15:18:24.263Z,11.70
2022-11-06T15:20:31.730Z,11.86
2022-11-06T15:22:42.737Z,11.65
2022-11-06T15:25:05.691Z,11.48
2022-11-06T15:27:20.770Z,11.46
2022-11-06T15:29:29.629Z,11.51
2022-11-06T15:31:33.910Z,11.46
2022-11-06T15:33:45.027Z,11.37
2022-11-06T15:35:49.814Z,11.33
2022-11-06T15:38:03.475Z,11.48
2022-11-06T15:40:06.645Z,11.51
2022-11-06T15:42:13.764Z,11.60
2022-11-06T15:44:21.378Z,11.63
2022-11-06T15:46:30.018Z,11.64
2022-11-06T15:48:33.091Z,11.62
2022-11-06T15:50:37.405Z,11.54
2022-11-06T15:52:40.958Z,11.60
2022-11-06T15:54:44.376Z,11.68
2022-11-06T15:56:49.186Z,11.71
2022-11-06T15:59:10.671Z,11.73
2022-11-06T16:01:14.053Z,11.82
2022-11-06T16:03:25.517Z,11.80
2022-11-06T16:05:31.426Z,11.77
2022-11-06T16:07:33.740Z,11.77
2022-11-06T16:09:36.991Z,11.81
2022-11-06T16:11:39.571Z,11.79
2022-11-06T16:13:44.683Z,11.85
2022-11-06T16:15:50.134Z,11.73
2022-11-06T16:17:52.815Z,11.70
2022-11-06T16:19:59.954Z,11.68
2022-11-06T16:22:07.670Z,11.53
2022-11-06T16:24:15.660Z,11.47
2022-11-06T16:26:39.432Z,11.56
2022-11-06T16:28:44.911Z,11.54
2022-11-06T16:30:49.231Z,11.64
2022-11-06T16:32:52.094Z,11.63
2022-11-06T16:34:55.711Z,11.52
2022-11-06T16:37:04.108Z,11.61
2022-11-06T16:39:35.361Z,11.70
2022-11-06T16:42:19.897Z,11.77
2022-11-06T16:44:31.784Z,11.77
2022-11-06T16:47:05.932Z,11.85
2022-11-06T16:49:34.805Z,11.84
2022-11-06T16:51:37.360Z,11.75
2022-11-06T16:54:01.633Z,11.68
2022-11-06T16:56:07.468Z,11.70
2022-11-06T16:58:16.723Z,11.70
2022-11-06T17:00:22.661Z,11.59
2022-11-06T17:02:31.189Z,11.48
2022-11-06T17:04:34.015Z,11.35
2022-11-06T17:06:37.515Z,11.37
2022-11-06T17:08:41.780Z,11.37
2022-11-06T17:10:46.401Z,11.27
2022-11-06T17:12:49.002Z,11.23
2022-11-06T17:14:51.950Z,11.21
2022-11-06T17:16:59.150Z,11.23
2022-11-06T17:19:01.794Z,11.22
2022-11-06T17:21:13.709Z,11.22
2022-11-06T17:23:17.138Z,11.12
2022-11-06T17:25:20.197Z,11.10
2022-11-06T17:27:23.331Z,10.82
2022-11-06T17:29:26.648Z,10.66
2022-11-06T17:31:29.347Z,10.75
2022-11-06T17:33:32.632Z,10.71
2022-11-06T17:35:35.361Z,10.72
2022-11-06T17:37:40.884Z,10.76
2022-11-06T17:39:43.442Z,10.78
2022-11-06T17:41:46.100Z,10.72
2022-11-06T17:43:49.529Z,10.71
2022-11-06T17:45:53.410Z,10.58
2022-11-06T17:47:56.413Z,10.69
2022-11-06T17:49:59.248Z,10.61
2022-11-06T17:52:02.721Z,10.62
2022-11-06T17:54:05.944Z,10.53
2022-11-06T17:56:08.910Z,10.56
2022-11-06T17:58:11.826Z,10.56
2022-11-06T18:00:17.750Z,10.47
2022-11-06T18:02:35.264Z,10.64
2022-11-06T18:04:44.044Z,10.57
2022-11-06T18:06:50.464Z,10.50
2022-11-06T18:08:57.913Z,10.44
2022-11-06T18:11:00.892Z,10.37
2022-11-06T18:13:03.232Z,10.39
2022-11-06T18:15:06.350Z,10.37
2022-11-06T18:17:09.128Z,10.37
2022-11-06T18:19:16.419Z,10.33
2022-11-06T18:21:20.530Z,10.28
2022-11-06T18:23:23.318Z,10.32
2022-11-06T18:25:26.476Z,10.28
2022-11-06T18:27:29.598Z,10.28
2022-11-06T18:29:32.619Z,10.35
2022-11-06T18:31:36.003Z,10.36
2022-11-06T18:33:39.125Z,10.36
2022-11-06T18:35:41.939Z,10.26
2022-11-06T18:37:45.716Z,10.38
2022-11-06T18:39:48.285Z,10.36
2022-11-06T18:41:51.877Z,10.30
2022-11-06T18:43:58.871Z,10.27
2022-11-06T18:46:07.229Z,10.02
2022-11-06T18:48:10.015Z,9.83
2022-11-06T18:50:13.636Z,9.83
2022-11-06T18:52:32.395Z,9.88
2022-11-06T18:54:35.816Z,9.97
2022-11-06T18:56:39.357Z,10.02
2022-11-06T18:58:42.280Z,10.00
2022-11-06T19:00:48.094Z,10.07
2022-11-06T19:02:51.427Z,10.07
2022-11-06T19:04:57.570Z,10.24
2022-11-06T19:07:01.198Z,10.28
2022-11-06T19:09:04.265Z,10.19
2022-11-06T19:11:09.281Z,10.24
2022-11-06T19:13:12.788Z,10.24
2022-11-06T19:15:15.321Z,10.10
2022-11-06T19:17:18.421Z,10.29
2022-11-06T19:19:25.403Z,10.47
2022-11-06T19:21:30.735Z,10.58
2022-11-06T19:23:34.062Z,10.74
2022-11-06T19:25:41.033Z,10.68
2022-11-06T19:27:44.127Z,10.83
2022-11-06T19:29:50.676Z,10.79
2022-11-06T19:31:55.226Z,10.66
2022-11-06T19:34:02.174Z,10.61
2022-11-06T19:36:05.903Z,10.61
2022-11-06T19:38:08.895Z,10.60
2022-11-06T19:40:11.488Z,10.58
2022-11-06T19:42:14.448Z,10.63
2022-11-06T19:44:17.247Z,10.64
2022-11-06T19:46:26.893Z,10.64
2022-11-06T19:48:33.243Z,10.56
2022-11-06T19:51:05.274Z,10.55
2022-11-06T19:52:58.788Z,10.50
2022-11-06T19:55:26.606Z,10.50
2022-11-06T19:57:30.298Z,10.47
2022-11-06T19:59:33.517Z,10.37
2022-11-06T20:01:36.684Z,10.33
2022-11-06T20:03:39.559Z,10.27
2022-11-06T20:05:42.854Z,10.35
2022-11-06T20:07:46.495Z,10.27
2022-11-06T20:09:49.555Z,10.23
2022-11-06T20:11:52.925Z,10.10
2022-11-06T20:13:55.652Z,10.07
2022-11-06T20:15:58.339Z,10.08
2022-11-06T20:18:01.050Z,10.03
2022-11-06T20:20:04.057Z,10.04
2022-11-06T20:22:07.415Z,10.08
2022-11-06T20:24:11.238Z,10.10
2022-11-06T20:26:15.545Z,10.03
2022-11-06T20:28:18.625Z,10.03
2022-11-06T20:30:21.638Z,9.99
2022-11-06T20:32:24.507Z,10.01
2022-11-06T20:34:27.609Z,9.96
2022-11-06T20:36:31.545Z,9.99
2022-11-06T20:38:34.220Z,10.00
2022-11-06T20:40:37.209Z,9.83
2022-11-06T20:42:45.635Z,9.71
2022-11-06T20:44:48.385Z,9.78
2022-11-06T20:46:53.737Z,9.75
2022-11-06T20:49:00.970Z,9.86
2022-11-06T20:51:06.837Z,9.93
2022-11-06T20:53:10.154Z,9.94
2022-11-06T20:55:12.439Z,9.84
2022-11-06T20:57:16.736Z,9.63
2022-11-06T20:59:19.893Z,9.76
2022-11-06T21:01:25.761Z,9.65
2022-11-06T21:03:28.584Z,9.59
2022-11-06T21:05:31.552Z,9.59
2022-11-06T21:07:35.631Z,9.61
2022-11-06T21:09:38.247Z,9.67
2022-11-06T21:11:41.176Z,9.70
2022-11-06T21:13:45.479Z,9.66
2022-11-06T21:15:47.962Z,9.60
2022-11-06T21:17:50.875Z,9.56
2022-11-06T21:19:53.191Z,9.32
2022-11-06T21:21:56.914Z,9.31
2022-11-06T21:24:01.507Z,9.31
2022-11-06T21:26:08.693Z,9.32
2022-11-06T21:28:10.895Z,9.33
2022-11-06T21:30:13.408Z,9.53
2022-11-06T21:32:16.125Z,9.45
2022-11-06T21:34:19.348Z,9.50
2022-11-06T21:36:25.725Z,9.55
2022-11-06T21:38:27.923Z,9.58
2022-11-06T21:40:30.216Z,9.58
2022-11-06T21:42:32.782Z,9.62
2022-11-06T21:44:35.064Z,9.70
2022-11-06T21:46:41.215Z,9.75
2022-11-06T21:48:48.215Z,9.70
2022-11-06T21:50:50.739Z,9.82
2022-11-06T21:53:12.312Z,9.79
2022-11-06T21:55:33.526Z,9.80
2022-11-06T21:57:35.697Z,9.69
2022-11-06T21:59:41.586Z,9.68
2022-11-06T22:01:44.631Z,9.61
2022-11-06T22:03:47.314Z,9.66
2022-11-06T22:05:49.508Z,9.64
2022-11-06T22:07:51.747Z,9.68
2022-11-06T22:09:54.186Z,9.39
2022-11-06T22:11:56.471Z,9.65
2022-11-06T22:14:01.327Z,9.79
2022-11-06T22:16:03.953Z,9.54
2022-11-06T22:18:06.189Z,9.45
2022-11-06T22:20:09.069Z,9.41
2022-11-06T22:22:11.554Z,9.33
2022-11-06T22:24:14.759Z,9.37
2022-11-06T22:26:26.493Z,9.26
2022-11-06T22:28:29.004Z,9.16
2022-11-06T22:30:31.298Z,9.12
2022-11-06T22:32:33.476Z,9.13
2022-11-06T22:34:35.971Z,9.28
2022-11-06T22:36:38.773Z,9.39
2022-11-06T22:38:43.407Z,9.31
2022-11-06T22:40:56.588Z,9.37
2022-11-06T22:42:58.890Z,9.26
2022-11-06T22:45:01.357Z,9.25
2022-11-06T22:47:05.134Z,9.19
2022-11-06T22:49:07.377Z,9.29
2022-11-06T22:51:12.766Z,9.33
2022-11-06T22:53:15.495Z,9.26
2022-11-06T22:55:17.760Z,9.11
2022-11-06T22:57:19.929Z,9.21
2022-11-06T22:59:22.541Z,9.25
2022-11-06T23:01:27.446Z,9.18
2022-11-06T23:03:30.721Z,9.17
2022-11-06T23:05:33.326Z,9.12
2022-11-06T23:07:35.530Z,9.01
2022-11-06T23:09:37.881Z,9.18
2022-11-06T23:11:40.445Z,9.34
2022-11-06T23:13:43.995Z,9.38
2022-11-06T23:15:46.244Z,9.35
2022-11-06T23:17:49.051Z,9.27
2022-11-06T23:19:51.508Z,9.31
2022-11-06T23:22:13.144Z,9.35
2022-11-06T23:24:15.892Z,9.45
2022-11-06T23:26:18.961Z,9.65
2022-11-06T23:28:21.580Z,9.68
